createdAt,value
2023-04-15T00:01:29.203Z,774.1
2023-04-15T00:03:12.901Z,771
2023-04-15T00:04:56.615Z,769.9
2023-04-15T00:06:40.339Z,770
2023-04-15T00:08:24.026Z,769.5
2023-04-15T00:10:07.726Z,766.2
2023-04-15T00:11:51.436Z,764.3
2023-04-15T00:13:35.131Z,762.3
2023-04-15T00:15:18.875Z,759.3
2023-04-15T00:17:02.552Z,760.8
2023-04-15T00:18:46.298Z,757.3
2023-04-15T00:20:29.945Z,756.4
2023-04-15T00:22:13.666Z,754
2023-04-15T00:23:57.354Z,751.4
2023-04-15T00:25:41.064Z,749
2023-04-15T00:27:24.774Z,745.3
2023-04-15T00:29:08.451Z,742.3
2023-04-15T00:30:52.146Z,743.4
2023-04-15T00:32:35.864Z,742.6
2023-04-15T00:34:19.564Z,739.7
2023-04-15T00:36:03.263Z,734.7
2023-04-15T00:37:46.955Z,728.1
2023-04-15T00:39:30.671Z,722.5
2023-04-15T00:41:14.347Z,723.6
2023-04-15T00:42:58.070Z,724.8
2023-04-15T00:44:42.018Z,725.1
2023-04-15T00:46:25.493Z,723.2
2023-04-15T00:48:09.173Z,721.7
2023-04-15T00:49:52.869Z,717.5
2023-04-15T00:51:36.562Z,713.1
2023-04-15T00:53:20.303Z,710.6
2023-04-15T00:55:03.972Z,707
2023-04-15T00:56:47.676Z,706.9
2023-04-15T00:58:31.381Z,708
2023-04-15T01:00:15.100Z,705.8
2023-04-15T01:01:58.792Z,704.2
2023-04-15T01:03:42.498Z,702
2023-04-15T01:05:26.213Z,698.3
2023-04-15T01:07:09.909Z,697.8
2023-04-15T01:08:53.615Z,697.2
2023-04-15T01:10:37.304Z,695.5
2023-04-15T01:12:21.044Z,692.4
2023-04-15T01:14:04.721Z,686.9
2023-04-15T01:15:48.409Z,683.6
2023-04-15T01:17:32.105Z,684.5
2023-04-15T01:19:15.819Z,682.9
2023-04-15T01:20:59.521Z,680.3
2023-04-15T01:22:43.226Z,678.1
2023-04-15T01:24:26.932Z,675.6
2023-04-15T01:26:10.638Z,673.8
2023-04-15T01:27:54.327Z,670.8
2023-04-15T01:29:38.034Z,669.7
2023-04-15T01:31:21.734Z,671.2
2023-04-15T01:33:05.414Z,670.7
2023-04-15T01:34:49.140Z,670.5
2023-04-15T01:36:32.844Z,669.2
2023-04-15T01:38:16.530Z,669.1
2023-04-15T01:40:00.253Z,664.5
2023-04-15T01:41:43.948Z,660.6
2023-04-15T01:43:27.656Z,659.1
2023-04-15T01:45:11.359Z,657.9
2023-04-15T01:46:55.071Z,659.2
2023-04-15T01:48:38.766Z,657.6
2023-04-15T01:50:22.475Z,655.7
2023-04-15T01:52:06.167Z,655.2
2023-04-15T01:53:49.841Z,652.8
2023-04-15T01:55:33.556Z,651.9
2023-04-15T01:57:17.292Z,652.4
2023-04-15T01:59:01.005Z,651
2023-04-15T02:00:44.653Z,649.3
2023-04-15T02:02:28.361Z,647.7
2023-04-15T02:04:12.067Z,646.7
2023-04-15T02:05:55.797Z,645.6
2023-04-15T02:07:39.483Z,642.6
2023-04-15T02:09:23.164Z,642.7
2023-04-15T02:11:06.886Z,639.8
2023-04-15T02:12:50.575Z,635.1
2023-04-15T02:14:34.290Z,633.6
2023-04-15T02:16:17.996Z,632.8
2023-04-15T02:18:01.702Z,630.9
2023-04-15T02:19:45.419Z,629.5
2023-04-15T02:21:29.104Z,627.6
2023-04-15T02:23:12.805Z,627.4
2023-04-15T02:24:56.518Z,629
2023-04-15T02:26:40.335Z,627.6
2023-04-15T02:28:23.960Z,630
2023-04-15T02:30:07.654Z,629.5
2023-04-15T02:31:51.321Z,630.6
2023-04-15T02:33:35.045Z,627.3
2023-04-15T02:35:18.765Z,626.2
2023-04-15T02:37:02.486Z,621.8
2023-04-15T02:38:46.145Z,619.7
2023-04-15T02:40:29.827Z,621.5
2023-04-15T02:42:13.559Z,622.7
2023-04-15T02:43:57.251Z,621.8
2023-04-15T02:45:40.939Z,621.1
2023-04-15T02:47:24.646Z,620.1
2023-04-15T02:49:08.354Z,617.7
2023-04-15T02:50:52.053Z,613.4
2023-04-15T02:52:35.748Z,612.7
2023-04-15T02:54:19.465Z,611.5
2023-04-15T02:56:03.158Z,611.1
2023-04-15T02:57:46.863Z,610.1
2023-04-15T02:59:30.569Z,606.5
2023-04-15T03:01:14.275Z,604.1
2023-04-15T03:02:58.015Z,598.3
2023-04-15T03:04:41.670Z,597.7
2023-04-15T03:06:25.370Z,598
2023-04-15T03:08:09.081Z,598
2023-04-15T03:09:52.793Z,596.1
2023-04-15T03:11:36.484Z,594.2
2023-04-15T03:13:20.220Z,592.4
2023-04-15T03:15:03.896Z,591.5
2023-04-15T03:16:47.594Z,591.1
2023-04-15T03:18:31.298Z,591.2
2023-04-15T03:20:14.975Z,591
2023-04-15T03:21:58.707Z,591
2023-04-15T03:23:42.441Z,591.5
2023-04-15T03:25:26.114Z,592.8
2023-04-15T03:27:09.801Z,593.1
2023-04-15T03:28:53.493Z,591.4
2023-04-15T03:30:37.251Z,587.2
2023-04-15T03:32:20.934Z,583.4
2023-04-15T03:34:04.625Z,584.2
2023-04-15T03:35:48.313Z,582.7
2023-04-15T03:37:32.027Z,579.7
2023-04-15T03:39:15.725Z,579
2023-04-15T03:40:59.431Z,578
2023-04-15T03:42:43.172Z,579.7
2023-04-15T03:44:26.821Z,582
2023-04-15T03:46:10.534Z,580.6
2023-04-15T03:47:54.267Z,578.4
2023-04-15T03:49:37.935Z,577.6
2023-04-15T03:51:21.653Z,577.4
2023-04-15T03:53:05.359Z,573.5
2023-04-15T03:54:49.071Z,571
2023-04-15T03:56:32.731Z,569.8
2023-04-15T03:58:16.441Z,563.5
2023-04-15T04:00:00.151Z,563
2023-04-15T04:01:43.847Z,565.7
2023-04-15T04:03:27.539Z,566
2023-04-15T04:05:11.240Z,566.8
2023-04-15T04:06:54.957Z,563.9
2023-04-15T04:08:38.664Z,559.8
2023-04-15T04:10:22.390Z,558.5
2023-04-15T04:12:06.061Z,560.3
2023-04-15T04:13:49.759Z,559.2
2023-04-15T04:15:33.447Z,558.5
2023-04-15T04:17:17.148Z,556
2023-04-15T04:19:00.860Z,556.9
2023-04-15T04:20:44.554Z,560.3
2023-04-15T04:22:28.273Z,560.4
2023-04-15T04:24:12.015Z,558.5
2023-04-15T04:25:55.664Z,559.6
2023-04-15T04:27:39.404Z,558
2023-04-15T04:29:23.078Z,560.6
2023-04-15T04:31:06.783Z,561.7
2023-04-15T04:32:50.476Z,561.3
2023-04-15T04:34:34.182Z,561.3
2023-04-15T04:36:17.895Z,557.2
2023-04-15T04:38:01.582Z,556
2023-04-15T04:39:45.278Z,557.4
2023-04-15T04:41:28.977Z,555
2023-04-15T04:43:12.693Z,554.7
2023-04-15T04:44:56.402Z,552.9
2023-04-15T04:46:40.084Z,551.3
2023-04-15T04:48:23.806Z,550
2023-04-15T04:50:07.494Z,551.9
2023-04-15T04:51:51.287Z,554.2
2023-04-15T04:55:18.604Z,553.1
2023-04-15T04:57:02.337Z,552.4
2023-04-15T04:58:46.030Z,552.1
2023-04-15T05:00:29.721Z,552.1
2023-04-15T05:02:13.404Z,550.9
2023-04-15T05:03:57.166Z,549.2
2023-04-15T05:05:40.836Z,546.6
2023-04-15T05:07:24.527Z,547.4
2023-04-15T05:09:08.236Z,549.6
2023-04-15T05:10:51.942Z,548.3
2023-04-15T05:12:35.638Z,548.5
2023-04-15T05:14:19.345Z,546.4
2023-04-15T05:16:03.033Z,545
2023-04-15T05:17:46.754Z,542.3
2023-04-15T05:19:30.472Z,538.3
2023-04-15T05:21:14.209Z,541
2023-04-15T05:22:57.958Z,538.8
2023-04-15T05:24:41.557Z,535.4
2023-04-15T05:26:25.259Z,533.9
2023-04-15T05:28:08.962Z,535.2
2023-04-15T05:29:52.667Z,535.3
2023-04-15T05:31:36.370Z,535.3
2023-04-15T05:33:20.060Z,536.4
2023-04-15T05:35:03.772Z,535.5
2023-04-15T05:36:47.446Z,532.9
2023-04-15T05:38:31.165Z,532.7
2023-04-15T05:40:14.892Z,532.3
2023-04-15T05:41:58.600Z,531
2023-04-15T05:43:42.276Z,532.3
2023-04-15T05:45:25.974Z,532.3
2023-04-15T05:47:09.675Z,533.1
2023-04-15T05:48:53.380Z,532.9
2023-04-15T05:50:37.088Z,531.5
2023-04-15T05:52:20.801Z,532.1
2023-04-15T05:54:04.519Z,531.6
2023-04-15T05:55:48.191Z,529.1
2023-04-15T05:57:31.915Z,529.6
2023-04-15T05:59:15.599Z,532.6
2023-04-15T06:00:59.302Z,532.9
2023-04-15T06:02:43.011Z,533.5
2023-04-15T06:04:26.712Z,533.7
2023-04-15T06:06:10.458Z,532.7
2023-04-15T06:07:54.117Z,533.9
2023-04-15T06:09:37.880Z,535.7
2023-04-15T06:11:21.535Z,538
2023-04-15T06:13:05.303Z,539.9
2023-04-15T06:14:48.904Z,541.8
2023-04-15T06:16:32.620Z,545.8
2023-04-15T06:18:16.333Z,546.7
2023-04-15T06:20:00.002Z,547
2023-04-15T06:21:43.715Z,549
2023-04-15T06:23:27.458Z,548.8
2023-04-15T06:25:11.185Z,549.2
2023-04-15T06:26:54.838Z,550.5
2023-04-15T06:28:38.548Z,550.1
2023-04-15T06:30:22.242Z,549.6
2023-04-15T06:33:49.663Z,545.1
2023-04-15T06:35:33.337Z,546.3
2023-04-15T06:37:17.067Z,545.6
2023-04-15T06:39:00.748Z,541.9
2023-04-15T06:40:44.486Z,542.8
2023-04-15T06:42:28.211Z,540.8
2023-04-15T06:44:11.869Z,539.7
2023-04-15T06:45:55.584Z,536
2023-04-15T06:47:39.346Z,535
2023-04-15T06:49:22.998Z,534.5
2023-04-15T06:51:06.680Z,534
2023-04-15T06:54:34.095Z,536.2
2023-04-15T06:56:17.793Z,536.1
2023-04-15T06:58:01.458Z,537.6
2023-04-15T06:59:45.217Z,538.6
2023-04-15T07:01:28.871Z,539.2
2023-04-15T07:03:12.621Z,537.2
2023-04-15T07:04:56.264Z,537.2
2023-04-15T07:06:40.051Z,535.9
2023-04-15T07:08:23.831Z,536.9
2023-04-15T07:10:07.509Z,537.4
2023-04-15T07:11:51.085Z,539.9
2023-04-15T07:13:34.856Z,538.6
2023-04-15T07:15:18.699Z,539.4
2023-04-15T07:17:02.329Z,540.1
2023-04-15T07:18:46.051Z,536
2023-04-15T07:20:29.744Z,537.4
2023-04-15T07:22:13.420Z,539.6
2023-04-15T07:23:57.188Z,539.4
2023-04-15T07:25:40.700Z,538.4
2023-04-15T07:27:24.444Z,539.5
2023-04-15T07:29:08.299Z,542.9
2023-04-15T07:30:51.825Z,545.1
2023-04-15T07:34:19.388Z,549.2
2023-04-15T07:36:03.036Z,551.4
2023-04-15T07:37:46.702Z,554.3
2023-04-15T07:39:30.547Z,555.9
2023-04-15T07:41:14.117Z,556.1
2023-04-15T07:42:57.743Z,556.1
2023-04-15T07:44:41.474Z,558
2023-04-15T07:46:25.127Z,557.5
2023-04-15T07:48:08.962Z,563.9
2023-04-15T07:49:52.742Z,573.4
2023-04-15T07:51:36.291Z,577.9
2023-04-15T07:55:03.655Z,575.3
2023-04-15T07:56:47.483Z,570.6
2023-04-15T07:58:31.115Z,568.7
2023-04-15T08:00:14.914Z,574.3
2023-04-15T08:01:58.533Z,578.5
2023-04-15T08:03:42.260Z,585.6
2023-04-15T08:05:25.915Z,600.5
2023-04-15T08:07:09.692Z,625.5
2023-04-15T08:08:53.246Z,645.7
2023-04-15T08:10:36.979Z,658.1
2023-04-15T08:12:20.712Z,668.6
2023-04-15T08:14:04.529Z,671.1
2023-04-15T08:15:48.103Z,677.8
2023-04-15T08:17:31.889Z,680.7
2023-04-15T08:19:15.575Z,686.2
2023-04-15T08:20:59.204Z,691.8
2023-04-15T08:22:43.059Z,699.8
2023-04-15T08:24:26.676Z,713.8
2023-04-15T08:26:10.358Z,726
2023-04-15T08:27:54.010Z,727.2
2023-04-15T08:29:37.822Z,732.1
2023-04-15T08:31:21.572Z,734.5
2023-04-15T08:33:05.100Z,742.9
2023-04-15T08:34:48.853Z,753.3
2023-04-15T08:36:32.533Z,755.2
2023-04-15T08:38:16.343Z,757.3
2023-04-15T08:39:59.993Z,762.7
2023-04-15T08:41:43.627Z,768.8
2023-04-15T08:43:27.323Z,766.6
2023-04-15T08:45:11.023Z,766.9
2023-04-15T08:46:54.720Z,763.1
2023-04-15T08:48:38.433Z,755.2
2023-04-15T08:50:22.281Z,755.6
2023-04-15T08:52:06.000Z,754.9
2023-04-15T08:53:49.542Z,754
2023-04-15T08:55:33.376Z,754.4
2023-04-15T08:57:16.943Z,755
2023-04-15T08:59:00.850Z,747.9
2023-04-15T09:00:44.450Z,743.5
2023-04-15T09:02:28.064Z,740
2023-04-15T09:04:11.853Z,737
2023-04-15T09:05:55.557Z,735.2
2023-04-15T09:07:39.170Z,735.3
2023-04-15T09:09:22.980Z,731.6
2023-04-15T09:11:06.659Z,726
2023-04-15T09:12:50.392Z,724.1
2023-04-15T09:14:34.072Z,721.1
2023-04-15T09:16:17.818Z,718.5
2023-04-15T09:18:01.406Z,717.4
2023-04-15T09:19:45.158Z,718.8
2023-04-15T09:21:28.761Z,721.2
2023-04-15T09:23:12.603Z,722
2023-04-15T09:24:56.183Z,722
2023-04-15T09:26:39.918Z,724.9
2023-04-15T09:28:23.713Z,725.2
2023-04-15T09:30:07.283Z,728.3
2023-04-15T09:31:50.972Z,730.3
2023-04-15T09:33:34.681Z,734.9
2023-04-15T09:35:18.559Z,734.5
2023-04-15T09:37:02.219Z,733.9
2023-04-15T09:38:45.788Z,733.6
2023-04-15T09:40:29.629Z,737
2023-04-15T09:42:13.260Z,739.8
2023-04-15T09:43:57.048Z,739.4
2023-04-15T09:45:40.598Z,740.9
2023-04-15T09:47:24.460Z,746.5
2023-04-15T09:49:08.076Z,747.9
2023-04-15T09:50:51.710Z,748.1
2023-04-15T09:52:35.384Z,750.3
2023-04-15T09:54:19.282Z,753
2023-04-15T09:56:03.043Z,752.9
2023-04-15T09:57:46.609Z,751.5
2023-04-15T09:59:30.303Z,751.2
2023-04-15T10:01:13.986Z,750.8
2023-04-15T10:02:57.613Z,749.4
2023-04-15T10:04:41.479Z,749
2023-04-15T10:06:25.135Z,750.7
2023-04-15T10:08:08.728Z,752.1
2023-04-15T10:09:52.450Z,752
2023-04-15T10:11:36.295Z,755.8
2023-04-15T10:13:19.979Z,755.9
2023-04-15T10:15:03.698Z,753.8
2023-04-15T10:16:47.336Z,756.5
2023-04-15T10:18:30.983Z,759.3
2023-04-15T10:20:14.650Z,760.1
2023-04-15T10:21:58.431Z,765.6
2023-04-15T10:23:42.071Z,770.8
2023-04-15T10:25:25.836Z,776.6
2023-04-15T10:27:09.461Z,784.9
2023-04-15T10:28:53.153Z,793.1
2023-04-15T10:30:36.856Z,797
2023-04-15T10:32:20.622Z,800.9
2023-04-15T10:34:04.453Z,806.4
2023-04-15T10:35:47.955Z,806.9
2023-04-15T10:37:31.684Z,806.1
2023-04-15T10:39:15.376Z,803.9
2023-04-15T10:40:59.074Z,805
2023-04-15T10:42:42.785Z,810.1
2023-04-15T10:44:26.597Z,814.5
2023-04-15T10:46:10.210Z,813
2023-04-15T10:47:53.896Z,811.1
2023-04-15T10:49:37.653Z,810.2
2023-04-15T10:51:21.281Z,806.7
2023-04-15T10:53:05.020Z,806
2023-04-15T10:54:48.771Z,804.7
2023-04-15T10:56:32.396Z,805.8
2023-04-15T10:58:16.164Z,806.2
2023-04-15T10:59:59.935Z,805.9
2023-04-15T11:01:43.496Z,806.7
2023-04-15T11:03:27.208Z,813.7
2023-04-15T11:05:10.920Z,819.9
2023-04-15T11:06:54.629Z,827.7
2023-04-15T11:08:38.332Z,830.5
2023-04-15T11:10:22.026Z,834
2023-04-15T11:12:05.710Z,833.2
2023-04-15T11:13:49.494Z,741.2
2023-04-15T11:15:33.239Z,687.1
2023-04-15T11:17:16.857Z,643.7
2023-04-15T11:19:00.553Z,628.3
2023-04-15T11:20:44.274Z,620
2023-04-15T11:22:27.970Z,606
2023-04-15T11:24:11.726Z,588.7
2023-04-15T11:25:55.328Z,578.6
2023-04-15T11:27:39.233Z,593
2023-04-15T11:29:22.899Z,656.6
2023-04-15T11:31:06.512Z,670.1
2023-04-15T11:32:50.336Z,675.5
2023-04-15T11:34:33.844Z,677.6
2023-04-15T11:36:17.528Z,676
2023-04-15T11:38:01.248Z,676.7
2023-04-15T11:39:44.946Z,680.1
2023-04-15T11:41:28.663Z,681.7
2023-04-15T11:43:12.342Z,679.3
2023-04-15T11:44:56.056Z,679.4
2023-04-15T11:46:39.756Z,675.5
2023-04-15T11:48:23.464Z,676
2023-04-15T11:50:07.164Z,678.2
2023-04-15T11:51:50.866Z,676
2023-04-15T11:53:34.566Z,677.4
2023-04-15T11:55:18.258Z,678
2023-04-15T11:57:01.958Z,677.2
2023-04-15T11:58:45.673Z,676.2
2023-04-15T12:00:29.376Z,675.7
2023-04-15T12:02:13.073Z,672.4
2023-04-15T12:03:56.761Z,670.1
2023-04-15T12:05:40.470Z,670.6
2023-04-15T12:07:24.171Z,672.9
2023-04-15T12:09:07.881Z,673.2
2023-04-15T12:10:51.574Z,675.7
2023-04-15T12:12:35.275Z,678.3
2023-04-15T12:14:18.980Z,678
2023-04-15T12:16:02.684Z,679.9
2023-04-15T12:17:46.367Z,679.8
2023-04-15T12:19:30.102Z,677.4
2023-04-15T12:21:13.797Z,675.3
2023-04-15T12:22:57.540Z,675.5
2023-04-15T12:24:41.277Z,675.6
2023-04-15T12:26:24.942Z,675.3
2023-04-15T12:28:08.645Z,680.8
2023-04-15T12:29:52.341Z,681.1
2023-04-15T12:31:36.141Z,683.8
2023-04-15T12:33:19.751Z,686.5
2023-04-15T12:35:03.535Z,684.2
2023-04-15T12:36:47.160Z,684.7
2023-04-15T12:38:30.877Z,686.5
2023-04-15T12:40:14.566Z,687
2023-04-15T12:41:58.258Z,686.2
2023-04-15T12:43:41.964Z,686.5
2023-04-15T12:45:25.724Z,685.6
2023-04-15T12:47:09.452Z,685
2023-04-15T12:48:53.045Z,683.1
2023-04-15T12:50:36.746Z,681.6
2023-04-15T12:52:20.436Z,678.1
2023-04-15T12:54:04.141Z,678.2
2023-04-15T12:55:47.886Z,677.8
2023-04-15T12:57:31.569Z,675.7
2023-04-15T12:59:15.255Z,671
2023-04-15T13:00:58.962Z,669
2023-04-15T13:02:42.664Z,670.3
2023-04-15T13:04:26.360Z,670.4
2023-04-15T13:06:10.064Z,671.7
2023-04-15T13:07:53.768Z,675.1
2023-04-15T13:09:37.456Z,673.1
2023-04-15T13:11:21.170Z,677.3
2023-04-15T13:13:04.865Z,679.6
2023-04-15T13:14:48.568Z,679.5
2023-04-15T13:16:32.267Z,680.1
2023-04-15T13:18:15.971Z,679.2
2023-04-15T13:19:59.659Z,676.6
2023-04-15T13:21:43.408Z,676.1
2023-04-15T13:23:27.050Z,675.6
2023-04-15T13:25:10.770Z,675.8
2023-04-15T13:26:54.457Z,673.2
2023-04-15T13:28:38.167Z,675
2023-04-15T13:30:21.883Z,675.2
2023-04-15T13:32:05.571Z,664.8
2023-04-15T13:33:49.252Z,655.2
2023-04-15T13:35:32.956Z,653
2023-04-15T13:37:16.666Z,664.7
2023-04-15T13:39:00.355Z,670.9
2023-04-15T13:40:44.038Z,672.6
2023-04-15T13:42:27.751Z,675.5
2023-04-15T13:44:11.470Z,678.5
2023-04-15T13:45:55.172Z,681.1
2023-04-15T13:47:38.866Z,682.4
2023-04-15T13:49:22.564Z,685
2023-04-15T13:51:06.275Z,686.6
2023-04-15T13:52:49.967Z,687.3
2023-04-15T13:54:33.666Z,685
2023-04-15T13:56:17.372Z,685
2023-04-15T13:58:01.078Z,686.7
2023-04-15T13:59:44.803Z,687.9
2023-04-15T14:01:28.463Z,689
2023-04-15T14:03:12.192Z,691.5
2023-04-15T14:04:55.858Z,693.7
2023-04-15T14:06:39.575Z,694.7
2023-04-15T14:08:23.272Z,694.2
2023-04-15T14:10:06.960Z,695.5
2023-04-15T14:11:50.665Z,693.9
2023-04-15T14:13:34.383Z,688.4
2023-04-15T14:15:18.066Z,686.1
2023-04-15T14:17:01.774Z,685.8
2023-04-15T14:18:45.479Z,691.6
2023-04-15T14:20:29.180Z,696.2
2023-04-15T14:22:12.876Z,697
2023-04-15T14:23:56.586Z,695.8
2023-04-15T14:25:40.277Z,696.3
2023-04-15T14:27:23.981Z,697.5
2023-04-15T14:29:07.679Z,689.7
2023-04-15T14:30:51.383Z,685.9
2023-04-15T14:32:35.084Z,679.1
2023-04-15T14:34:18.791Z,677.7
2023-04-15T14:36:02.504Z,684.4
2023-04-15T14:37:46.190Z,685.3
2023-04-15T14:39:30.025Z,686.2
2023-04-15T14:41:13.769Z,683.1
2023-04-15T14:42:57.492Z,684.5
2023-04-15T14:44:41.204Z,686.6
2023-04-15T14:46:24.823Z,686.3
2023-04-15T14:48:08.404Z,684.2
2023-04-15T14:49:52.113Z,687.5
2023-04-15T14:51:35.812Z,689.2
2023-04-15T14:53:19.530Z,689.9
2023-04-15T14:55:03.235Z,691.4
2023-04-15T14:56:46.918Z,693.7
2023-04-15T14:58:30.641Z,697.1
2023-04-15T15:00:14.344Z,699.9
2023-04-15T15:01:58.051Z,702.9
2023-04-15T15:03:41.742Z,706.9
2023-04-15T15:05:25.434Z,712.2
2023-04-15T15:07:09.145Z,715.4
2023-04-15T15:08:52.847Z,723.6
2023-04-15T15:10:36.532Z,735.9
2023-04-15T15:12:20.259Z,751.8
2023-04-15T15:14:03.958Z,786.8
2023-04-15T15:15:47.670Z,799.8
2023-04-15T15:17:31.357Z,800.2
2023-04-15T15:19:15.069Z,798.9
2023-04-15T15:20:58.773Z,799.9
2023-04-15T15:22:42.472Z,799
2023-04-15T15:24:26.149Z,798.9
2023-04-15T15:26:09.871Z,792.3
2023-04-15T15:27:53.580Z,807.4
2023-04-15T15:29:37.289Z,826.1
2023-04-15T15:31:20.988Z,834.4
2023-04-15T15:33:04.698Z,843.1
2023-04-15T15:34:48.400Z,851.7
2023-04-15T15:36:32.108Z,856.7
2023-04-15T15:38:15.807Z,862.8
2023-04-15T15:39:59.503Z,863.6
2023-04-15T15:41:43.226Z,861.9
2023-04-15T15:43:26.951Z,863.8
2023-04-15T15:45:10.626Z,870.8
2023-04-15T15:46:54.321Z,877.6
2023-04-15T15:48:38.009Z,883.5
2023-04-15T15:50:21.725Z,883.3
2023-04-15T15:52:05.436Z,888.1
2023-04-15T15:53:49.236Z,895.6
2023-04-15T15:55:32.816Z,896.5
2023-04-15T15:57:16.534Z,900.8
2023-04-15T15:59:00.241Z,906
2023-04-15T16:00:43.929Z,909.4
2023-04-15T16:02:27.632Z,910.5
2023-04-15T16:04:11.351Z,912
2023-04-15T16:05:55.058Z,914.1
2023-04-15T16:07:38.751Z,915.5
2023-04-15T16:09:22.453Z,917.6
2023-04-15T16:11:06.176Z,918.7
2023-04-15T16:12:49.848Z,918.9
2023-04-15T16:14:33.579Z,922.8
2023-04-15T16:16:17.275Z,924
2023-04-15T16:18:00.962Z,916.5
2023-04-15T16:19:44.692Z,911.1
2023-04-15T16:21:28.372Z,908.1
2023-04-15T16:23:12.101Z,909.3
2023-04-15T16:24:55.784Z,905.7
2023-04-15T16:26:39.470Z,899.9
2023-04-15T16:28:23.178Z,904.9
2023-04-15T16:30:06.855Z,904.6
2023-04-15T16:31:50.569Z,903.7
2023-04-15T16:33:34.308Z,902.7
2023-04-15T16:35:17.984Z,906
2023-04-15T16:37:01.703Z,907.3
2023-04-15T16:38:45.394Z,906.6
2023-04-15T16:40:29.103Z,907.4
2023-04-15T16:42:12.796Z,906.6
2023-04-15T16:43:56.510Z,911.6
2023-04-15T16:45:40.222Z,916.9
2023-04-15T16:47:23.907Z,928.9
2023-04-15T16:49:07.605Z,993.3
2023-04-15T16:50:51.311Z,1003.3
2023-04-15T16:52:35.017Z,1004.7
2023-04-15T16:54:18.714Z,1005.2
2023-04-15T16:56:02.441Z,1010.3
2023-04-15T16:57:46.151Z,1006
2023-04-15T16:59:29.820Z,1007.3
2023-04-15T17:01:13.514Z,1011.6
2023-04-15T17:02:57.209Z,1018.2
2023-04-15T17:04:40.934Z,1036.3
2023-04-15T17:06:24.610Z,1032.3
2023-04-15T17:08:08.357Z,1018.4
2023-04-15T17:09:52.023Z,1009.4
2023-04-15T17:11:35.727Z,1006
2023-04-15T17:13:19.410Z,1003.7
2023-04-15T17:15:03.118Z,1002.3
2023-04-15T17:16:46.833Z,996.5
2023-04-15T17:18:30.517Z,987.7
2023-04-15T17:20:14.256Z,977.3
2023-04-15T17:21:57.923Z,969.6
2023-04-15T17:23:41.637Z,961.3
2023-04-15T17:25:25.388Z,957.4
2023-04-15T17:27:09.050Z,956.9
2023-04-15T17:28:52.741Z,955.5
2023-04-15T17:30:36.438Z,959.7
2023-04-15T17:32:20.148Z,961.2
2023-04-15T17:34:03.856Z,960.6
2023-04-15T17:35:47.550Z,961.3
2023-04-15T17:37:31.253Z,960.9
2023-04-15T17:39:14.950Z,958.9
2023-04-15T17:40:58.659Z,959.4
2023-04-15T17:42:42.359Z,960.5
2023-04-15T17:44:26.061Z,963.1
2023-04-15T17:46:09.769Z,966.5
2023-04-15T17:47:53.475Z,973.8
2023-04-15T17:49:37.162Z,982.3
2023-04-15T17:51:20.875Z,992.4
2023-04-15T17:53:04.576Z,998.1
2023-04-15T17:54:48.282Z,1002.5
2023-04-15T17:58:15.700Z,1011.1
2023-04-15T17:59:59.381Z,1007.4
2023-04-15T18:01:43.074Z,1008.9
2023-04-15T18:03:26.775Z,1012.3
2023-04-15T18:05:10.470Z,1013.3
2023-04-15T18:06:54.189Z,1012.7
2023-04-15T18:08:37.887Z,1017.8
2023-04-15T18:10:21.586Z,1020.5
2023-04-15T18:12:05.286Z,1019.9
2023-04-15T18:13:49.004Z,1025.8
2023-04-15T18:15:32.689Z,1029.2
2023-04-15T18:17:16.389Z,1032.6
2023-04-15T18:19:00.090Z,1046.9
2023-04-15T18:20:43.808Z,1058.3
2023-04-15T18:22:27.510Z,1066.1
2023-04-15T18:24:11.204Z,1067
2023-04-15T18:25:54.897Z,1070.3
2023-04-15T18:27:38.617Z,1074
2023-04-15T18:29:22.320Z,1074.8
2023-04-15T18:31:06.012Z,1075.5
2023-04-15T18:32:49.719Z,1079.6
2023-04-15T18:34:33.403Z,1086
2023-04-15T18:36:17.115Z,1089.7
2023-04-15T18:38:00.814Z,1088.3
2023-04-15T18:39:44.523Z,1090.7
2023-04-15T18:41:28.225Z,1094.2
2023-04-15T18:43:11.932Z,1096.9
2023-04-15T18:44:55.621Z,1097.6
2023-04-15T18:46:39.339Z,1097.4
2023-04-15T18:48:23.023Z,1097.5
2023-04-15T18:50:06.719Z,1100.9
2023-04-15T18:51:50.419Z,1100.5
2023-04-15T18:53:34.138Z,1097
2023-04-15T18:55:17.822Z,1097.7
2023-04-15T18:57:01.534Z,1094.3
2023-04-15T18:58:45.229Z,1094.6
2023-04-15T19:00:28.951Z,1090.8
2023-04-15T19:02:12.633Z,1087.5
2023-04-15T19:03:56.345Z,1086
2023-04-15T19:05:40.049Z,1087.5
2023-04-15T19:07:23.745Z,1085.9
2023-04-15T19:09:07.455Z,1080.9
2023-04-15T19:10:51.139Z,1080.9
2023-04-15T19:12:34.847Z,1079.5
2023-04-15T19:14:18.561Z,1077.5
2023-04-15T19:16:02.257Z,1074.1
2023-04-15T19:17:45.949Z,1079.4
2023-04-15T19:19:29.653Z,1083.3
2023-04-15T19:21:13.360Z,1086.2
2023-04-15T19:22:57.062Z,1090.4
2023-04-15T19:24:40.768Z,1095.5
2023-04-15T19:26:24.474Z,1099.8
2023-04-15T19:28:08.173Z,1108.4
2023-04-15T19:29:51.880Z,1110.6
2023-04-15T19:31:35.577Z,1113.3
2023-04-15T19:33:19.273Z,1119.4
2023-04-15T19:35:02.979Z,1126.1
2023-04-15T19:36:46.708Z,1136.5
2023-04-15T19:38:30.390Z,1147.5
2023-04-15T19:40:14.081Z,1159.9
2023-04-15T19:41:57.799Z,1194.5
2023-04-15T19:43:41.482Z,1190.8
2023-04-15T19:45:25.189Z,1183.7
2023-04-15T19:47:08.892Z,1178.1
2023-04-15T19:48:52.578Z,1173.7
2023-04-15T19:50:36.299Z,1171.4
2023-04-15T19:52:20.009Z,1171.3
2023-04-15T19:54:03.720Z,1173.9
2023-04-15T19:55:47.384Z,1170.3
2023-04-15T19:57:31.108Z,1166.6
2023-04-15T19:59:14.855Z,1167.3
2023-04-15T20:00:58.969Z,1167.5
2023-04-15T20:02:42.214Z,1168.3
2023-04-15T20:04:25.904Z,1167.7
2023-04-15T20:06:09.602Z,1161.7
2023-04-15T20:07:53.307Z,1159.6
2023-04-15T20:09:37.009Z,1161
2023-04-15T20:11:20.726Z,1165.5
2023-04-15T20:13:04.415Z,1163.6
2023-04-15T20:14:48.147Z,1158.1
2023-04-15T20:16:31.824Z,1153.4
2023-04-15T20:18:15.507Z,1151.5
2023-04-15T20:19:59.229Z,1148.8
2023-04-15T20:21:42.928Z,1146.7
2023-04-15T20:23:26.644Z,1141.2
2023-04-15T20:25:10.305Z,1139.7
2023-04-15T20:26:54.030Z,1138.9
2023-04-15T20:28:37.730Z,1135.1
2023-04-15T20:30:21.453Z,1137.8
2023-04-15T20:32:05.130Z,1137.9
2023-04-15T20:33:48.852Z,1131.7
2023-04-15T20:35:32.528Z,1126
2023-04-15T20:37:16.229Z,1124.2
2023-04-15T20:38:59.912Z,1127
2023-04-15T20:40:43.651Z,1127
2023-04-15T20:42:27.351Z,1123.6
2023-04-15T20:44:11.040Z,1118.6
2023-04-15T20:45:54.743Z,1114.8
2023-04-15T20:47:38.497Z,1110.6
2023-04-15T20:49:22.152Z,1109.9
2023-04-15T20:51:05.875Z,1105.8
2023-04-15T20:52:49.557Z,1104.7
2023-04-15T20:54:33.256Z,1100.4
2023-04-15T20:56:16.962Z,1094.9
2023-04-15T20:58:00.673Z,1094.4
2023-04-15T20:59:44.382Z,1091.1
2023-04-15T21:01:28.064Z,1089.2
2023-04-15T21:03:11.768Z,1084.3
2023-04-15T21:04:55.478Z,1081.9
2023-04-15T21:06:39.273Z,1082.3
2023-04-15T21:08:22.874Z,1081.1
2023-04-15T21:10:06.567Z,1080
2023-04-15T21:11:50.310Z,1077.3
2023-04-15T21:13:34.063Z,1072.6
2023-04-15T21:15:17.685Z,1063.4
2023-04-15T21:17:01.404Z,1050.6
2023-04-15T21:18:45.114Z,1040.7
2023-04-15T21:20:28.835Z,1034.1
2023-04-15T21:22:12.551Z,1029.5
2023-04-15T21:23:56.218Z,1021.9
2023-04-15T21:25:39.945Z,1018.6
2023-04-15T21:27:23.690Z,1012.7
2023-04-15T21:29:07.307Z,1006.9
2023-04-15T21:30:51.004Z,1002.8
2023-04-15T21:32:34.691Z,999.7
2023-04-15T21:34:18.419Z,995.6
2023-04-15T21:36:02.114Z,990.2
2023-04-15T21:37:45.816Z,989.2
2023-04-15T21:39:29.510Z,982.3
2023-04-15T21:41:13.213Z,979.3
2023-04-15T21:42:56.919Z,971.7
2023-04-15T21:44:40.630Z,970.3
2023-04-15T21:46:24.317Z,964.9
2023-04-15T21:48:08.031Z,958.7
2023-04-15T21:49:51.729Z,955.1
2023-04-15T21:51:35.425Z,951.4
2023-04-15T21:53:19.113Z,946.2
2023-04-15T21:55:02.827Z,942.3
2023-04-15T21:56:46.519Z,935.1
2023-04-15T21:58:30.250Z,928.6
2023-04-15T22:00:13.922Z,922.5
2023-04-15T22:01:57.615Z,917.3
2023-04-15T22:03:41.334Z,912.8
2023-04-15T22:05:25.027Z,908.9
2023-04-15T22:07:08.732Z,905.7
2023-04-15T22:08:52.435Z,898.2
2023-04-15T22:10:36.147Z,898.7
2023-04-15T22:12:19.842Z,898
2023-04-15T22:14:03.556Z,894.9
2023-04-15T22:15:47.244Z,892.3
2023-04-15T22:17:30.946Z,891.6
2023-04-15T22:19:14.690Z,885.7
2023-04-15T22:20:58.392Z,883.3
2023-04-15T22:22:42.083Z,880.2
2023-04-15T22:24:25.824Z,875.7
2023-04-15T22:26:09.985Z,869.3
2023-04-15T22:27:53.181Z,865.3